Time;durP1;ratioP1;P1;durP2;ratioP2;P2;SDS_P1;SDS_P2;PMS_P1;PMS_P2;Temp;Humidity;BMP_temperature;BMP_pressure;BME280_temperature;BME280_humidity;BME280_pressure;Samples;Min_cycle;Max_cycle;Signal;HPM_P1;HPM_P2
2024/02/17 00:00:48;;;;;;;;;123.67;101.00;;;;;2.08;100.00;100371.28;6272968;20;3705531;-52
2024/02/17 00:03:22;;;;;;;;;107.00;95.00;;;;;1.87;100.00;100374.25;6271539;20;3675296;-54
2024/02/17 00:05:53;;;;;;;;;116.33;99.00;;;;;1.37;100.00;100355.56;6274222;20;3686737;-53
2024/02/17 00:08:23;;;;;;;;;116.67;101.67;;;;;1.63;100.00;100368.41;6271689;20;3700351;-52
2024/02/17 00:10:52;;;;;;;;;130.00;106.00;;;;;1.82;100.00;100376.09;6269352;20;3716936;-52
2024/02/17 00:13:22;;;;;;;;;117.00;98.33;;;;;2.10;100.00;100368.59;6270796;20;3685773;-50
2024/02/17 00:15:52;;;;;;;;;110.00;94.33;;;;;2.26;100.00;100370.09;6271020;20;3683624;-50
2024/02/17 00:18:26;;;;;;;;;105.67;90.33;;;;;1.80;100.00;100365.53;6272589;20;3685050;-53
2024/02/17 00:21:02;;;;;;;;;101.67;78.33;;;;;1.50;100.00;100367.72;6271708;20;3686740;-53
2024/02/17 00:23:34;;;;;;;;;111.25;96.25;;;;;1.50;100.00;100369.47;6277326;20;3703384;-50
2024/02/17 00:26:04;;;;;;;;;111.67;93.00;;;;;1.53;100.00;100365.03;6271044;20;3696103;-53
2024/02/17 00:28:34;;;;;;;;;105.33;80.00;;;;;1.51;100.00;100372.13;6270198;20;3694072;-49
2024/02/17 00:31:03;;;;;;;;;113.00;98.33;;;;;1.70;100.00;100359.50;6270085;20;3677322;-51
2024/02/17 00:33:33;;;;;;;;;109.67;88.00;;;;;1.33;100.00;100359.13;6270250;20;3704421;-51
2024/02/17 00:36:06;;;;;;;;;101.67;78.00;;;;;1.34;100.00;100357.34;6271280;20;3675259;-50
2024/02/17 00:38:35;;;;;;;;;105.33;79.00;;;;;1.24;100.00;100362.78;6271227;20;3689832;-53
2024/02/17 00:41:06;;;;;;;;;98.33;75.33;;;;;1.54;100.00;100357.97;6268752;20;3657178;-54
2024/02/17 00:43:37;;;;;;;;;98.67;78.33;;;;;2.08;100.00;100355.41;6268834;20;3665909;-54
2024/02/17 00:46:07;;;;;;;;;97.67;75.67;;;;;1.42;100.00;100353.72;6304065;20;3666965;-53
2024/02/17 00:48:36;;;;;;;;;91.00;72.00;;;;;1.61;100.00;100358.78;6303983;20;3503432;-52
2024/02/17 00:51:06;;;;;;;;;83.67;66.00;;;;;1.23;100.00;100357.50;6307642;20;2881638;-55
2024/02/17 00:53:42;;;;;;;;;94.00;71.67;;;;;1.42;100.00;100363.41;6302625;20;3646094;-53
2024/02/17 00:56:13;;;;;;;;;93.33;68.33;;;;;1.66;100.00;100362.19;6301138;20;3662752;-52
2024/02/17 00:58:41;;;;;;;;;93.00;69.00;;;;;1.72;100.00;100365.66;6303294;20;2775389;-53
2024/02/17 01:01:11;;;;;;;;;85.67;68.00;;;;;1.36;100.00;100364.38;6269693;20;3628379;-53
2024/02/17 01:03:54;;;;;;;;;85.67;63.67;;;;;1.22;100.00;100361.03;6300469;20;3642962;-50
2024/02/17 01:06:24;;;;;;;;;77.50;60.50;;;;;1.47;100.00;100357.16;6299251;20;2877392;-52
2024/02/17 01:08:55;;;;;;;;;82.33;62.00;;;;;1.69;100.00;100354.25;6273061;20;3643046;-50
2024/02/17 01:11:24;;;;;;;;;79.00;63.67;;;;;1.69;100.00;100356.88;6302010;20;3623207;-49
2024/02/17 01:13:54;;;;;;;;;78.00;62.67;;;;;1.58;100.00;100359.69;6303384;20;2873231;-51
2024/02/17 01:16:23;;;;;;;;;76.00;59.00;;;;;1.28;100.00;100367.13;6307059;20;2882588;-50
2024/02/17 01:18:52;;;;;;;;;83.00;63.00;;;;;1.34;100.00;100350.28;6274445;20;2769019;-51
2024/02/17 01:21:22;;;;;;;;;81.00;63.33;;;;;1.51;100.00;100358.88;6308250;20;2870163;-50
2024/02/17 01:23:53;;;;;;;;;82.00;63.00;;;;;1.70;100.00;100359.50;6306270;20;2881660;-51
2024/02/17 01:26:21;;;;;;;;;69.67;53.33;;;;;1.47;100.00;100357.16;6306959;20;2883744;-52
2024/02/17 01:28:51;;;;;;;;;89.00;64.67;;;;;1.33;100.00;100353.84;6308867;20;3657575;-51
2024/02/17 01:31:21;;;;;;;;;86.67;62.67;;;;;1.31;100.00;100355.63;6308627;20;3660772;-50
2024/02/17 01:33:51;;;;;;;;;87.33;65.00;;;;;1.35;100.00;100352.06;6272283;20;3649244;-49
2024/02/17 01:36:21;;;;;;;;;91.67;67.00;;;;;1.31;100.00;100350.34;6308265;20;3660706;-53
2024/02/17 01:38:51;;;;;;;;;97.00;72.00;;;;;1.28;100.00;100345.94;6308800;20;3653441;-50
2024/02/17 01:41:20;;;;;;;;;92.33;69.00;;;;;1.15;100.00;100343.50;6274153;20;3655526;-51
2024/02/17 01:43:50;;;;;;;;;104.00;82.00;;;;;1.61;100.00;100349.06;6306715;20;3688845;-51
2024/02/17 01:46:21;;;;;;;;;91.33;67.33;;;;;1.60;100.00;100354.34;6272137;20;3647218;-50
2024/02/17 01:48:51;;;;;;;;;96.00;74.00;;;;;1.17;100.00;100344.34;6307687;20;3655481;-50
2024/02/17 01:51:22;;;;;;;;;104.00;77.00;;;;;1.28;100.00;100345.94;6308521;20;3718011;-51
2024/02/17 01:53:53;;;;;;;;;90.67;67.67;;;;;1.66;100.00;100344.56;6273797;20;2875391;-52
2024/02/17 01:56:23;;;;;;;;;93.33;72.33;;;;;1.85;100.00;100354.88;6305949;20;3630594;-53
2024/02/17 01:58:56;;;;;;;;;94.33;69.00;;;;;0.92;100.00;100349.06;6305700;20;3649202;-52
2024/02/17 02:01:26;;;;;;;;;84.67;65.67;;;;;1.05;100.00;100350.66;6307546;20;2881674;-51
2024/02/17 02:03:56;;;;;;;;;90.33;67.33;;;;;1.20;100.00;100352.25;6306413;20;3656637;-50
2024/02/17 02:06:29;;;;;;;;;92.00;68.00;;;;;0.92;100.00;100347.28;6306890;20;3643994;-51
2024/02/17 02:08:59;;;;;;;;;92.33;66.33;;;;;0.71;100.00;100348.44;6308739;20;3652397;-54
2024/02/17 02:11:29;;;;;;;;;89.67;69.33;;;;;1.09;100.00;100345.31;6305610;20;3638875;-51
2024/02/17 02:14:14;;;;;;;;;90.50;68.00;;;;;1.24;100.00;100340.75;6300848;20;2502431;-52
2024/02/17 02:16:45;;;;;;;;;88.33;64.33;;;;;0.75;100.00;100343.97;6276608;20;3638797;-52
2024/02/17 02:19:16;;;;;;;;;87.33;64.00;;;;;0.76;100.00;100340.41;6303354;20;3657536;-51
2024/02/17 02:21:46;;;;;;;;;100.33;74.33;;;;;0.44;100.00;100336.34;6305815;20;3665907;-53
2024/02/17 02:24:16;;;;;;;;;94.33;72.00;;;;;0.73;100.00;100343.09;6271902;20;3652441;-50
2024/02/17 02:26:46;;;;;;;;;91.00;67.33;;;;;1.44;100.00;100345.75;6306382;20;3657614;-49
2024/02/17 02:29:15;;;;;;;;;92.00;66.33;;;;;1.75;100.00;100344.41;6306543;20;3659650;-50
2024/02/17 02:31:46;;;;;;;;;88.33;66.67;;;;;1.27;100.00;100354.81;6304887;20;3663866;-51
2024/02/17 02:34:16;;;;;;;;;86.33;67.33;;;;;1.32;100.00;100349.47;6305569;20;2881646;-52
2024/02/17 02:36:45;;;;;;;;;88.67;65.00;;;;;1.10;100.00;100351.47;6307644;20;3665995;-49
2024/02/17 02:39:15;;;;;;;;;87.00;64.67;;;;;0.93;100.00;100354.34;6307957;20;3680572;-50
2024/02/17 02:41:44;;;;;;;;;80.00;65.00;;;;;0.55;100.00;100352.09;6306423;20;2879472;-54
2024/02/17 02:44:13;;;;;;;;;87.00;65.00;;;;;0.42;100.00;100349.59;6273678;20;3648194;-50
2024/02/17 02:46:43;;;;;;;;;89.33;67.00;;;;;0.75;100.00;100349.25;6306986;20;3646074;-53
2024/02/17 02:49:13;;;;;;;;;83.67;61.00;;;;;0.87;100.00;100344.72;6306442;20;2892313;-50
2024/02/17 02:51:43;;;;;;;;;87.00;66.00;;;;;0.76;100.00;100345.72;6307534;20;3651720;-51
2024/02/17 02:54:11;;;;;;;;;81.00;59.00;;;;;0.67;100.00;100351.97;6304706;20;2884662;-48
2024/02/17 02:56:41;;;;;;;;;84.67;61.33;;;;;0.72;100.00;100352.81;6272899;20;3656654;-53
2024/02/17 02:59:10;;;;;;;;;75.00;60.00;;;;;0.59;100.00;100348.53;6305353;20;2881684;-51
2024/02/17 03:01:40;;;;;;;;;81.00;59.33;;;;;0.38;100.00;100345.22;6270785;20;2893172;-53
2024/02/17 03:04:09;;;;;;;;;81.33;62.33;;;;;0.52;100.00;100355.63;6302140;20;2893040;-51
2024/02/17 03:06:39;;;;;;;;;84.33;62.67;;;;;0.73;100.00;100351.91;6302832;20;3647399;-52
2024/02/17 03:09:09;;;;;;;;;80.33;59.67;;;;;0.64;100.00;100352.88;6304530;20;2876313;-54
2024/02/17 03:11:38;;;;;;;;;78.33;59.33;;;;;0.71;100.00;100350.16;6303538;20;3648279;-52
2024/02/17 03:14:08;;;;;;;;;77.00;63.00;;;;;0.84;100.00;100357.06;6300286;20;2877349;-53
2024/02/17 03:16:39;;;;;;;;;90.67;66.00;;;;;0.55;100.00;100363.53;6272373;20;3662807;-52
2024/02/17 03:19:09;;;;;;;;;86.33;61.67;;;;;0.81;100.00;100359.75;6306863;20;3658870;-51
2024/02/17 03:21:42;;;;;;;;;86.33;65.67;;;;;0.63;100.00;100364.34;6302683;20;3647204;-51
2024/02/17 03:24:12;;;;;;;;;103.00;74.00;;;;;0.72;100.00;100357.22;6304199;20;3680510;-54
2024/02/17 03:26:42;;;;;;;;;104.67;77.67;;;;;1.13;100.00;100362.00;6270266;20;3684652;-52
2024/02/17 03:29:12;;;;;;;;;107.00;79.00;;;;;1.21;100.00;100364.56;6271231;20;3684714;-54
2024/02/17 03:31:44;;;;;;;;;98.00;76.33;;;;;1.31;100.00;100374.13;6274272;20;3651327;-53
2024/02/17 03:34:13;;;;;;;;;96.67;71.33;;;;;0.98;100.00;100373.66;6303459;20;3650244;-53
2024/02/17 03:36:43;;;;;;;;;97.33;73.00;;;;;0.81;100.00;100373.84;6301739;20;3655463;-52
2024/02/17 03:39:15;;;;;;;;;98.67;76.00;;;;;1.02;100.00;100379.78;6305066;20;3650243;-51
2024/02/17 03:41:46;;;;;;;;;100.00;73.33;;;;;0.74;100.00;100374.81;6306416;20;3658664;-53
2024/02/17 03:44:17;;;;;;;;;104.67;76.33;;;;;0.77;100.00;100376.56;6272172;20;3691941;-51
2024/02/17 03:46:46;;;;;;;;;94.67;71.00;;;;;0.57;100.00;100372.31;6272021;20;3652337;-51
2024/02/17 03:49:20;;;;;;;;;97.67;73.00;;;;;0.59;100.00;100370.53;6273644;20;3655525;-52
2024/02/17 03:51:50;;;;;;;;;95.00;73.00;;;;;0.74;100.00;100376.56;6301866;20;3643003;-54
2024/02/17 03:54:20;;;;;;;;;105.00;74.67;;;;;1.10;100.00;100383.22;6304931;20;3680527;-49
2024/02/17 03:56:49;;;;;;;;;96.00;74.00;;;;;0.46;100.00;100374.19;6269609;20;2773216;-54
2024/02/17 03:59:19;;;;;;;;;102.67;78.00;;;;;0.63;100.00;100377.56;6306890;20;3673184;-50
2024/02/17 04:01:55;;;;;;;;;110.33;93.00;;;;;0.77;100.00;100379.19;6271147;20;3691944;-52
2024/02/17 04:04:25;;;;;;;;;113.00;97.33;;;;;0.88;100.00;100377.31;6273875;20;3687890;-53
2024/02/17 04:06:55;;;;;;;;;107.00;83.33;;;;;0.69;100.00;100376.63;6268783;20;3697120;-52
2024/02/17 04:09:25;;;;;;;;;101.00;82.67;;;;;0.74;100.00;100389.78;6272652;20;3674381;-51
2024/02/17 04:11:54;;;;;;;;;104.00;72.67;;;;;1.11;100.00;100384.97;6272157;20;3677325;-50
2024/02/17 04:14:24;;;;;;;;;98.33;74.33;;;;;1.09;100.00;100384.97;6271427;20;3649322;-51
2024/02/17 04:16:54;;;;;;;;;102.33;75.33;;;;;0.67;100.00;100385.47;6304975;20;3680445;-52
2024/02/17 04:19:24;;;;;;;;;96.00;71.67;;;;;0.18;100.00;100379.72;6303166;20;3658592;-51
2024/02/17 04:21:54;;;;;;;;;100.33;72.00;;;;;0.63;100.00;100382.84;6305202;20;3669003;-53
2024/02/17 04:24:23;;;;;;;;;101.33;72.33;;;;;0.54;100.00;100384.69;6302111;20;3680457;-54
2024/02/17 04:26:53;;;;;;;;;99.00;72.67;;;;;0.69;100.00;100375.75;6300824;20;3665918;-53
2024/02/17 04:29:22;;;;;;;;;94.00;67.33;;;;;0.13;100.00;100376.25;6270826;20;3659207;-52
2024/02/17 04:31:52;;;;;;;;;92.00;72.67;;;;;0.52;100.00;100384.69;6303982;20;2872198;-53
2024/02/17 04:34:24;;;;;;;;;108.67;81.33;;;;;0.93;100.00;100380.78;6302301;20;3685806;-52
2024/02/17 04:36:53;;;;;;;;;89.00;71.00;;;;;1.07;100.00;100389.41;6269433;20;2882614;-53
2024/02/17 04:39:22;;;;;;;;;98.00;72.33;;;;;0.53;100.00;100386.47;6273257;20;3672213;-54
2024/02/17 04:41:54;;;;;;;;;97.67;73.00;;;;;0.43;100.00;100388.31;6272345;20;3657597;-51
2024/02/17 04:44:24;;;;;;;;;107.33;79.33;;;;;0.76;100.00;100394.16;6300120;20;3685705;-54
2024/02/17 04:46:54;;;;;;;;;94.67;71.67;;;;;0.31;100.00;100388.41;6268098;20;3663182;-51
2024/02/17 04:49:25;;;;;;;;;144.00;116.25;;;;;0.60;100.00;100392.56;6306063;20;3713788;-52
2024/02/17 04:51:55;;;;;;;;;149.75;120.75;;;;;0.18;100.00;100382.34;6273634;20;4503376;-52
2024/02/17 04:54:25;;;;;;;;;116.67;98.00;;;;;-0.09;100.00;100391.34;6276392;20;3693052;-50
2024/02/17 04:56:55;;;;;;;;;116.00;91.00;;;;;0.16;100.00;100389.44;6277109;20;3687876;-55
2024/02/17 04:59:25;;;;;;;;;112.67;84.67;;;;;0.05;100.00;100388.63;6276078;20;3688823;-49
2024/02/17 05:01:54;;;;;;;;;100.67;74.33;;;;;0.13;100.00;100385.91;6276155;20;3681143;-52
2024/02/17 05:04:24;;;;;;;;;99.33;73.00;;;;;0.35;100.00;100389.28;6275626;20;3673280;-53
2024/02/17 05:06:55;;;;;;;;;99.00;77.00;;;;;0.65;100.00;100393.38;6307641;20;2893046;-51
2024/02/17 05:09:25;;;;;;;;;95.67;69.67;;;;;0.50;100.00;100398.81;6309662;20;3660742;-52
2024/02/17 05:11:55;;;;;;;;;99.00;72.00;;;;;0.17;100.00;100387.66;6308530;20;3661747;-49
2024/02/17 05:14:26;;;;;;;;;100.00;73.33;;;;;0.73;100.00;100394.19;6305124;20;3663801;-52
2024/02/17 05:16:55;;;;;;;;;92.00;71.00;;;;;0.93;100.00;100395.75;6308959;20;2880517;-52
2024/02/17 05:19:24;;;;;;;;;93.00;71.00;;;;;0.20;100.00;100392.91;6307599;20;2765019;-49
2024/02/17 05:21:56;;;;;;;;;100.33;75.00;;;;;-0.62;100.00;100394.31;6276418;20;3661763;-55
2024/02/17 05:24:25;;;;;;;;;92.33;69.33;;;;;-0.17;100.00;100394.94;6306923;20;3651305;-51
2024/02/17 05:26:55;;;;;;;;;94.67;70.67;;;;;-0.38;100.00;100404.72;6308124;20;3651409;-51
2024/02/17 05:29:25;;;;;;;;;105.33;83.00;;;;;-0.06;100.00;100395.75;6308096;20;3671071;-55
2024/02/17 05:31:55;;;;;;;;;101.67;78.33;;;;;-0.01;100.00;100384.25;6275295;20;3676288;-52
2024/02/17 05:34:25;;;;;;;;;105.67;80.33;;;;;-0.68;100.00;100396.09;6274652;20;3691910;-53
2024/02/17 05:36:56;;;;;;;;;102.00;70.67;;;;;0.01;100.00;100394.81;6275529;20;3658993;-53
2024/02/17 05:39:26;;;;;;;;;109.00;78.33;;;;;0.28;100.00;100390.22;6307302;20;3677408;-55
2024/02/17 05:41:56;;;;;;;;;103.67;77.33;;;;;-0.05;100.00;100392.22;6274019;20;3678959;-41
2024/02/17 05:44:27;;;;;;;;;103.33;82.33;;;;;0.33;100.00;100393.69;6274683;20;3664816;-41
2024/02/17 05:46:57;;;;;;;;;105.00;75.33;;;;;-0.05;100.00;100405.44;6304588;20;3679642;-40
2024/02/17 05:49:26;;;;;;;;;104.00;77.67;;;;;0.29;100.00;100407.78;6273972;20;3676297;-40
2024/02/17 05:51:56;;;;;;;;;109.33;84.33;;;;;0.54;100.00;100414.63;6272787;20;3695038;-40
2024/02/17 05:54:26;;;;;;;;;99.67;73.00;;;;;0.65;100.00;100420.69;6271241;20;3658758;-40
2024/02/17 05:56:56;;;;;;;;;105.33;74.67;;;;;0.35;100.00;100419.19;6304668;20;3688796;-40
2024/02/17 05:59:25;;;;;;;;;92.33;74.33;;;;;0.10;100.00;100417.63;6276805;20;2887854;-42
2024/02/17 06:01:55;;;;;;;;;104.00;77.67;;;;;0.37;100.00;100421.81;6305424;20;3673322;-41
2024/02/17 06:04:25;;;;;;;;;107.00;79.33;;;;;0.42;100.00;100425.28;6272691;20;3681538;-40
2024/02/17 06:06:54;;;;;;;;;99.00;75.67;;;;;0.24;100.00;100426.34;6274527;20;3659632;-41
2024/02/17 06:09:24;;;;;;;;;137.00;101.00;;;;;0.25;100.00;100440.41;6307695;20;3704522;-41
2024/02/17 06:11:54;;;;;;;;;111.33;87.67;;;;;0.16;100.00;100442.25;6265128;20;3705530;-41
2024/02/17 06:14:24;;;;;;;;;109.33;75.33;;;;;0.40;100.00;100441.16;6271705;20;3683620;-43
2024/02/17 06:16:53;;;;;;;;;91.33;68.67;;;;;0.66;100.00;100445.38;6273682;20;3636744;-41
2024/02/17 06:22:11;;;;;;;;;95.00;71.33;;;;;1.57;100.00;100458.47;6275371;20;3672404;-41
2024/02/17 06:24:41;;;;;;;;;92.67;71.33;;;;;3.18;100.00;100458.59;6273605;20;3636881;-42
2024/02/17 06:27:11;;;;;;;;;88.33;65.00;;;;;1.44;100.00;100463.03;6302681;20;3655922;-41
2024/02/17 06:29:44;;;;;;;;;78.33;60.00;;;;;1.62;100.00;100459.31;6303910;20;3650422;-43
2024/02/17 06:32:14;;;;;;;;;98.33;75.00;;;;;6.63;86.32;100467.47;6306167;20;3663792;-40
2024/02/17 06:34:44;;;;;;;;;97.67;79.67;;;;;6.34;74.24;100469.28;6269913;20;3663919;-42
2024/02/17 06:37:14;;;;;;;;;88.33;64.67;;;;;6.34;76.94;100466.63;6275476;20;3647575;-40
2024/02/17 06:39:43;;;;;;;;;83.00;64.00;;;;;6.72;75.87;100471.66;6302721;20;2759146;-40
2024/02/17 06:42:12;;;;;;;;;82.33;63.33;;;;;8.46;65.25;100483.13;6270532;20;2876477;-42
2024/02/17 06:44:42;;;;;;;;;90.33;73.67;;;;;7.64;65.07;100480.00;6304501;20;3672354;-42
2024/02/17 06:47:12;;;;;;;;;197.00;156.50;;;;;6.69;69.47;100479.75;6273996;20;4494022;-39
2024/02/17 06:49:40;;;;;;;;;143.50;120.00;;;;;7.50;66.39;100487.63;6268236;20;1960968;-39
2024/02/17 06:52:09;;;;;;;;;160.50;134.00;;;;;7.52;68.33;100500.94;6268110;20;1951416;-40
2024/02/17 06:54:37;;;;;;;;;119.00;102.00;;;;;9.27;61.01;100500.31;6266622;20;1949254;-40
2024/02/17 06:57:07;;;;;;;;;107.75;92.25;;;;;8.98;61.81;100499.75;6275298;20;3695059;-41
2024/02/17 06:59:37;;;;;;;;;97.33;82.00;;;;;7.69;63.62;100494.06;6306813;20;3678421;-42
2024/02/17 07:02:07;;;;;;;;;86.67;74.00;;;;;8.28;68.50;100502.56;6269175;20;3660674;-44
2024/02/17 07:04:37;;;;;;;;;84.67;69.67;;;;;8.34;66.30;100507.66;6272430;20;3674210;-41
2024/02/17 07:07:07;;;;;;;;;80.67;73.33;;;;;6.43;73.49;100504.63;6266917;20;3664980;-43
2024/02/17 07:09:40;;;;;;;;;80.33;67.00;;;;;7.14;73.87;100504.06;6272380;20;3676341;-39
2024/02/17 07:12:10;;;;;;;;;79.67;71.67;;;;;6.25;81.05;100504.25;6271585;20;3655545;-40
2024/02/17 07:14:40;;;;;;;;;76.67;63.00;;;;;6.15;83.27;100509.00;6266847;20;3658701;-42
2024/02/17 07:17:09;;;;;;;;;82.33;70.33;;;;;5.60;87.47;100507.03;6305198;20;3669032;-41
2024/02/17 07:19:39;;;;;;;;;86.00;79.25;;;;;6.26;84.85;100506.00;6270609;20;3645111;-40
2024/02/17 07:22:09;;;;;;;;;93.00;87.00;;;;;6.44;85.11;100499.22;6303817;20;3650240;-41
2024/02/17 07:24:38;;;;;;;;;77.00;66.00;;;;;11.70;64.69;100511.06;6265819;20;3647147;-39
2024/02/17 07:27:09;;;;;;;;;76.67;64.33;;;;;13.45;51.59;100521.91;6268416;20;3644038;-39
2024/02/17 07:29:39;;;;;;;;;71.67;56.67;;;;;14.21;49.53;100525.25;6270665;20;3622173;-41
2024/02/17 07:32:07;;;;;;;;;84.75;80.50;;;;;13.68;50.40;100532.19;6271980;20;2896251;-41
2024/02/17 07:34:37;;;;;;;;;65.00;48.67;;;;;13.32;50.19;100538.84;6302871;20;3606636;-40
2024/02/17 07:37:07;;;;;;;;;75.00;63.00;;;;;8.34;64.22;100529.06;6274412;20;3651440;-41
2024/02/17 07:39:38;;;;;;;;;72.33;58.67;;;;;6.80;78.48;100517.66;6302303;20;3630746;-54
2024/02/17 07:42:08;;;;;;;;;71.67;58.67;;;;;6.71;82.33;100513.47;6299415;20;3616946;-52
2024/02/17 07:44:42;;;;;;;;;75.33;61.33;;;;;6.53;85.49;100508.72;6302904;20;3647251;-52
2024/02/17 07:47:14;;;;;;;;;79.33;68.67;;;;;6.01;90.68;100505.88;6306697;20;3667000;-55
2024/02/17 07:49:44;;;;;;;;;74.00;58.67;;;;;4.72;97.78;100500.47;6275726;20;3629483;-54
2024/02/17 07:52:13;;;;;;;;;72.50;55.00;;;;;5.28;99.21;100503.47;6306901;20;2686792;-51
2024/02/17 07:54:42;;;;;;;;;75.33;58.67;;;;;5.58;97.32;100500.88;6301833;20;2883817;-51
2024/02/17 07:57:12;;;;;;;;;71.33;56.00;;;;;5.70;97.81;100505.84;6304656;20;3632585;-53
2024/02/17 07:59:41;;;;;;;;;82.00;66.00;;;;;6.26;98.86;100522.00;6305526;20;3643125;-55
2024/02/17 08:02:11;;;;;;;;;78.33;59.67;;;;;7.22;89.92;100515.34;6302347;20;3628378;-53
2024/02/17 08:04:42;;;;;;;;;72.33;57.67;;;;;6.70;88.02;100506.41;6302523;20;2878496;-54
2024/02/17 08:07:15;;;;;;;;;72.00;56.67;;;;;7.36;87.83;100505.97;6305985;20;3625300;-53
2024/02/17 08:09:51;;;;;;;;;71.33;55.33;;;;;7.99;83.83;100517.91;6307214;20;3631622;-53
2024/02/17 08:12:21;;;;;;;;;74.33;57.00;;;;;7.55;84.28;100520.41;6302375;20;3628392;-55
2024/02/17 08:14:52;;;;;;;;;66.67;54.33;;;;;7.32;88.05;100520.34;6303278;20;3599340;-56
2024/02/17 08:17:22;;;;;;;;;79.67;70.67;;;;;7.00;92.01;100516.97;6308824;20;3661793;-56
2024/02/17 08:19:52;;;;;;;;;74.67;59.00;;;;;8.31;84.04;100508.66;6272515;20;2862921;-57
2024/02/17 08:22:22;;;;;;;;;67.67;54.00;;;;;8.54;81.06;100507.78;6305621;20;3623299;-55
2024/02/17 08:24:52;;;;;;;;;68.33;53.67;;;;;9.00;79.79;100505.91;6303072;20;3624236;-55
2024/02/17 08:27:21;;;;;;;;;69.33;55.33;;;;;9.14;79.06;100508.00;6307582;20;2871223;-55
2024/02/17 08:29:51;;;;;;;;;67.67;54.33;;;;;9.01;79.71;100512.13;6303162;20;2866018;-57
2024/02/17 08:32:20;;;;;;;;;69.00;54.00;;;;;8.14;80.84;100517.34;6305726;20;3623195;-56
2024/02/17 08:34:49;;;;;;;;;71.67;59.67;;;;;8.93;78.85;100520.50;6308357;20;3625255;-57
2024/02/17 08:37:20;;;;;;;;;73.00;57.00;;;;;8.98;77.14;100521.16;6270524;20;3626328;-56
2024/02/17 08:39:50;;;;;;;;;70.33;55.33;;;;;9.27;76.81;100527.13;6305761;20;2872262;-53
2024/02/17 08:42:19;;;;;;;;;71.00;54.67;;;;;9.39;76.09;100526.56;6304229;20;2875402;-57
2024/02/17 08:44:52;;;;;;;;;76.33;60.33;;;;;8.65;77.82;100525.22;6303880;20;3650329;-57
2024/02/17 08:47:23;;;;;;;;;73.67;61.00;;;;;9.61;75.84;100529.19;6306388;20;3639935;-56
2024/02/17 08:49:53;;;;;;;;;70.00;54.67;;;;;8.92;78.27;100521.41;6303273;20;3610824;-57
2024/02/17 08:52:23;;;;;;;;;72.00;57.67;;;;;9.76;76.43;100519.59;6306586;20;3630588;-59
2024/02/17 08:54:52;;;;;;;;;68.67;54.00;;;;;9.56;77.28;100522.31;6301564;20;3624284;-54
2024/02/17 08:57:22;;;;;;;;;72.00;56.33;;;;;9.86;76.19;100522.72;6304827;20;3628370;-58
2024/02/17 08:59:52;;;;;;;;;72.00;57.33;;;;;9.86;74.76;100531.66;6301038;20;3635657;-55
2024/02/17 09:02:21;;;;;;;;;81.00;73.67;;;;;9.29;77.31;100533.25;6268449;20;3644016;-56
2024/02/17 09:04:51;;;;;;;;;72.67;57.33;;;;;8.89;80.37;100539.41;6303172;20;3632909;-56
2024/02/17 09:07:21;;;;;;;;;70.33;54.67;;;;;8.78;80.63;100534.50;6305737;20;3626348;-56
2024/02/17 09:09:54;;;;;;;;;69.67;55.00;;;;;8.87;79.04;100534.09;6300220;20;3612887;-57
2024/02/17 09:12:24;;;;;;;;;69.00;53.67;;;;;10.30;74.09;100546.69;6303851;20;3629554;-58
2024/02/17 09:14:54;;;;;;;;;71.00;57.33;;;;;10.01;74.15;100531.91;6302777;20;3620200;-55
2024/02/17 09:17:24;;;;;;;;;67.33;52.67;;;;;9.90;72.71;100527.03;6306410;20;3623186;-57
2024/02/17 09:19:53;;;;;;;;;63.00;49.00;;;;;10.89;67.43;100542.09;6272978;20;3628410;-56
2024/02/17 09:22:23;;;;;;;;;64.67;51.00;;;;;10.45;68.49;100539.72;6300002;20;3623208;-54
2024/02/17 09:24:53;;;;;;;;;60.00;49.67;;;;;11.39;66.55;100538.66;6303777;20;3619145;-57
2024/02/17 09:27:23;;;;;;;;;68.67;54.67;;;;;10.96;69.85;100535.47;6301082;20;3610766;-57
2024/02/17 09:29:52;;;;;;;;;68.00;54.33;;;;;11.06;66.90;100542.13;6304895;20;3624329;-57
2024/02/17 09:32:21;;;;;;;;;65.33;50.00;;;;;11.03;68.97;100547.63;6271531;20;2869065;-57
2024/02/17 09:34:51;;;;;;;;;73.00;57.67;;;;;11.05;67.66;100536.81;6302262;20;3641945;-57
2024/02/17 09:37:20;;;;;;;;;75.00;60.33;;;;;9.98;72.68;100534.69;6307855;20;3635752;-56
2024/02/17 09:39:50;;;;;;;;;67.00;53.33;;;;;10.28;71.80;100532.47;6279682;20;2867045;-54
2024/02/17 09:42:19;;;;;;;;;69.00;56.67;;;;;11.40;67.55;100535.03;6310647;20;3619081;-56
2024/02/17 09:44:49;;;;;;;;;73.00;56.67;;;;;11.27;65.77;100539.28;6301077;20;3627416;-58
2024/02/17 09:47:18;;;;;;;;;63.00;50.33;;;;;11.29;66.44;100542.78;6307423;20;3620198;-54
2024/02/17 09:49:48;;;;;;;;;57.00;47.00;;;;;11.36;63.48;100538.84;6276395;20;2858679;-56
2024/02/17 09:52:18;;;;;;;;;55.00;47.00;;;;;11.91;62.23;100540.50;6306553;20;2755496;-51
2024/02/17 09:54:48;;;;;;;;;59.00;48.00;;;;;11.64;63.51;100536.47;6274735;20;3614943;-53
2024/02/17 09:57:18;;;;;;;;;58.33;45.67;;;;;12.45;61.93;100536.63;6306932;20;3623163;-52
2024/02/17 09:59:48;;;;;;;;;55.00;43.67;;;;;12.92;58.56;100541.13;6305532;20;3610680;-54
2024/02/17 10:02:18;;;;;;;;;58.00;47.33;;;;;12.76;58.23;100534.00;6305574;20;2868139;-53
2024/02/17 10:04:56;;;;;;;;;50.33;42.67;;;;;12.99;58.72;100540.78;6309832;20;2869381;-53
2024/02/17 10:07:26;;;;;;;;;57.67;47.00;;;;;12.88;58.81;100539.56;6309408;20;3623374;-52
2024/02/17 10:09:55;;;;;;;;;52.33;44.00;;;;;13.73;57.43;100538.16;6311238;20;3608661;-53
2024/02/17 10:12:25;;;;;;;;;44.33;38.33;;;;;14.40;55.72;100534.91;6279675;20;2865004;-54
2024/02/17 10:14:54;;;;;;;;;46.33;38.00;;;;;13.65;55.70;100532.38;6313192;20;3594030;-52
2024/02/17 10:17:22;;;;;;;;;44.00;37.00;;;;;12.81;57.07;100526.53;6274855;20;2849252;-55
2024/02/17 10:19:55;;;;;;;;;45.33;36.33;;;;;13.48;57.73;100527.09;6275130;20;2858797;-58
2024/02/17 10:22:24;;;;;;;;;48.00;38.67;;;;;13.16;58.46;100521.78;6309132;20;3607696;-56
2024/02/17 10:24:59;;;;;;;;;46.67;38.33;;;;;13.29;56.52;100522.81;6276389;20;2848236;-57
2024/02/17 10:27:28;;;;;;;;;41.33;37.00;;;;;13.23;56.34;100523.16;6307544;20;3599314;-56
2024/02/17 10:30:13;;;;;;;;;41.00;34.00;;;;;13.59;55.56;100521.97;6272268;20;2854435;-58
2024/02/17 10:32:42;;;;;;;;;40.67;36.67;;;;;14.37;55.78;100527.00;6312403;20;3573417;-57
2024/02/17 10:35:14;;;;;;;;;49.67;39.33;;;;;14.34;53.14;100538.00;6273854;20;3597116;-55
2024/02/17 10:37:50;;;;;;;;;44.63;36.63;;;;;13.95;54.71;100531.44;6328799;20;3586709;-52
2024/02/17 10:40:20;;;;;;;;;40.33;35.00;;;;;14.37;53.76;100527.00;6272532;20;2845519;-51
2024/02/17 10:42:51;;;;;;;;;42.50;34.00;;;;;14.59;53.04;100527.41;6309594;20;2850359;-54
2024/02/17 10:45:20;;;;;;;;;40.67;34.33;;;;;14.23;53.84;100523.34;6278982;20;3605480;-53
2024/02/17 10:48:04;;;;;;;;;46.67;39.33;;;;;13.87;55.30;100512.16;6273461;20;2861762;-53
2024/02/17 10:50:40;;;;;;;;;44.67;36.33;;;;;13.84;55.80;100516.75;6313014;20;3591960;-53
2024/02/17 10:53:31;;;;;;;;;46.00;38.00;;;;;14.35;54.14;100523.53;6274768;20;2873417;-51
2024/02/17 10:56:00;;;;;;;;;48.67;39.33;;;;;13.88;55.45;100527.41;6308432;20;3598147;-55
2024/02/17 10:58:30;;;;;;;;;48.67;39.33;;;;;14.10;54.63;100530.47;6271649;20;2867089;-53
2024/02/17 11:01:00;;;;;;;;;49.67;40.67;;;;;13.53;56.27;100527.69;6307705;20;3605519;-53
2024/02/17 11:03:34;;;;;;;;;56.33;44.00;;;;;13.58;55.16;100512.09;6274904;20;3616297;-54
2024/02/17 11:06:12;;;;;;;;;50.00;39.33;;;;;13.51;55.82;100519.72;6303644;20;2855563;-53
2024/02/17 11:08:42;;;;;;;;;42.67;36.00;;;;;13.99;53.92;100517.66;6310652;20;3606497;-54
2024/02/17 11:11:30;;;;;;;;;48.33;40.67;;;;;14.35;53.69;100518.13;6278103;20;3592952;-52